Time;durP1;ratioP1;P1;durP2;ratioP2;P2;SDS_P1;SDS_P2;PMS_P1;PMS_P2;Temp;Humidity;BMP_temperature;BMP_pressure;BME280_temperature;BME280_humidity;BME280_pressure;Samples;Min_cycle;Max_cycle;Signal;HPM_P1;HPM_P2
2022/10/25 00:02:15;;;;;;;;;1.00;0.00;;;;;;;;4989124;28;8884;-83
2022/10/25 00:04:42;;;;;;;;;1.00;1.00;;;;;;;;5008767;28;8835;-84
2022/10/25 00:07:10;;;;;;;;;2.25;1.00;;;;;;;;4975414;28;8884;-84
2022/10/25 00:09:39;;;;;;;;;0.50;0.00;;;;;;;;4990811;28;8858;-84
2022/10/25 00:12:06;;;;;;;;;4.00;1.00;;;;;;;;5008856;28;8863;-84
2022/10/25 00:14:34;;;;;;;;;1.50;0.25;;;;;;;;5008627;28;8843;-85
2022/10/25 00:17:02;;;;;;;;;1.50;1.00;;;;;;;;5006900;28;8961;-84
2022/10/25 00:19:29;;;;;;;;;1.00;1.00;;;;;;;;5007204;28;8877;-84
2022/10/25 00:21:57;;;;;;;;;0.25;0.25;;;;;;;;4985676;28;8871;-84
2022/10/25 00:24:24;;;;;;;;;0.00;0.00;;;;;;;;4973281;28;8887;-83
2022/10/25 00:26:53;;;;;;;;;0.00;0.00;;;;;;;;5007238;28;8875;-83
2022/10/25 00:29:21;;;;;;;;;0.00;0.00;;;;;;;;5007511;28;8864;-83
2022/10/25 00:31:48;;;;;;;;;1.25;1.25;;;;;;;;5005610;28;8846;-83
2022/10/25 00:34:16;;;;;;;;;1.50;0.00;;;;;;;;5003117;28;8866;-83
2022/10/25 00:36:43;;;;;;;;;1.00;1.00;;;;;;;;5006137;28;8962;-84
2022/10/25 00:39:11;;;;;;;;;0.50;0.50;;;;;;;;5006987;28;8884;-83
2022/10/25 00:41:38;;;;;;;;;2.75;0.00;;;;;;;;4987458;28;8845;-84
2022/10/25 00:44:48;;;;;;;;;2.00;0.25;;;;;;;;4989110;28;8867;-83
2022/10/25 00:47:24;;;;;;;;;0.25;0.25;;;;;;;;4974475;28;8889;-84
2022/10/25 00:49:57;;;;;;;;;1.75;0.25;;;;;;;;5006187;28;8893;-85
2022/10/25 00:52:25;;;;;;;;;0.75;0.75;;;;;;;;4991503;28;8982;-84
2022/10/25 00:54:55;;;;;;;;;0.75;0.75;;;;;;;;5007634;28;8847;-85
2022/10/25 00:57:26;;;;;;;;;0.75;0.75;;;;;;;;5004940;28;8836;-85
2022/10/25 00:59:55;;;;;;;;;2.00;0.25;;;;;;;;5006777;28;8897;-85
2022/10/25 01:02:23;;;;;;;;;1.75;0.75;;;;;;;;5006899;28;8858;-85
2022/10/25 01:04:51;;;;;;;;;2.00;1.00;;;;;;;;4993722;28;8903;-85
2022/10/25 01:07:18;;;;;;;;;1.00;1.00;;;;;;;;5006641;28;8872;-84
2022/10/25 01:09:46;;;;;;;;;1.00;1.00;;;;;;;;5007919;28;9003;-85
2022/10/25 01:12:13;;;;;;;;;1.75;1.25;;;;;;;;5006815;28;8879;-84
2022/10/25 01:14:46;;;;;;;;;0.00;0.00;;;;;;;;5008399;28;8997;-85
2022/10/25 01:20:40;;;;;;;;;1.75;1.00;;;;;;;;5005885;28;8867;-82
2022/10/25 01:23:32;;;;;;;;;1.00;1.00;;;;;;;;5006893;28;8840;-82
2022/10/25 01:26:22;;;;;;;;;1.00;1.00;;;;;;;;5007121;28;8871;-83
2022/10/25 01:29:05;;;;;;;;;0.50;0.50;;;;;;;;5002769;28;8925;-82
2022/10/25 01:31:37;;;;;;;;;0.00;0.00;;;;;;;;4990076;28;8869;-82
2022/10/25 01:34:09;;;;;;;;;1.50;0.75;;;;;;;;5006553;28;8835;-82
2022/10/25 01:36:44;;;;;;;;;1.00;1.00;;;;;;;;5005561;28;8961;-81
2022/10/25 01:39:14;;;;;;;;;1.50;1.00;;;;;;;;5006853;28;8875;-81
2022/10/25 01:41:49;;;;;;;;;0.00;0.00;;;;;;;;4989156;28;8870;-81
2022/10/25 01:44:28;;;;;;;;;1.00;1.00;;;;;;;;4989260;28;8867;-81
2022/10/25 01:47:01;;;;;;;;;1.00;0.75;;;;;;;;5008236;28;8843;-81
2022/10/25 01:49:35;;;;;;;;;1.00;1.00;;;;;;;;5007269;28;8848;-81
2022/10/25 01:52:04;;;;;;;;;2.00;0.50;;;;;;;;5003319;28;8894;-81
2022/10/25 01:54:33;;;;;;;;;0.25;0.25;;;;;;;;4976469;28;8839;-80
2022/10/25 01:57:20;;;;;;;;;0.50;0.50;;;;;;;;4984904;28;8858;-80
2022/10/25 02:00:07;;;;;;;;;0.25;0.25;;;;;;;;4993027;28;8846;-82
2022/10/25 02:02:43;;;;;;;;;0.50;0.50;;;;;;;;4992083;28;8850;-82
2022/10/25 02:05:18;;;;;;;;;0.00;0.00;;;;;;;;4971292;28;8870;-81
2022/10/25 02:07:54;;;;;;;;;0.00;0.00;;;;;;;;4987037;28;9636;-81
2022/10/25 02:10:25;;;;;;;;;1.00;1.00;;;;;;;;4969733;28;8934;-81
2022/10/25 02:12:56;;;;;;;;;0.75;0.75;;;;;;;;4989051;28;8839;-82
2022/10/25 02:15:27;;;;;;;;;1.25;1.25;;;;;;;;4986485;28;8855;-82
2022/10/25 02:18:00;;;;;;;;;1.00;1.00;;;;;;;;4974653;28;8844;-82
2022/10/25 02:20:30;;;;;;;;;0.25;0.25;;;;;;;;4974968;28;8841;-82
2022/10/25 02:22:58;;;;;;;;;1.50;0.00;;;;;;;;4972856;28;8859;-82
2022/10/25 02:25:26;;;;;;;;;0.00;0.00;;;;;;;;4990482;28;9644;-81
2022/10/25 02:27:55;;;;;;;;;2.00;1.00;;;;;;;;4968569;28;8874;-82
2022/10/25 02:30:23;;;;;;;;;0.25;0.25;;;;;;;;4988707;28;8865;-82
2022/10/25 02:32:50;;;;;;;;;1.00;1.00;;;;;;;;4986880;28;8859;-83
2022/10/25 02:35:20;;;;;;;;;2.00;0.00;;;;;;;;4984371;28;9225;-83
2022/10/25 02:37:48;;;;;;;;;0.25;0.25;;;;;;;;4974676;28;8851;-81
2022/10/25 02:40:15;;;;;;;;;1.25;1.00;;;;;;;;4989212;28;8852;-81
2022/10/25 02:42:43;;;;;;;;;0.75;0.75;;;;;;;;4989813;28;8859;-82
2022/10/25 02:45:12;;;;;;;;;2.00;1.00;;;;;;;;4973581;28;8905;-82
2022/10/25 02:47:39;;;;;;;;;0.25;0.25;;;;;;;;4972827;28;8870;-82
2022/10/25 02:50:07;;;;;;;;;0.25;0.25;;;;;;;;4988743;28;8871;-82
2022/10/25 02:52:36;;;;;;;;;1.00;1.00;;;;;;;;4977602;28;8852;-82
2022/10/25 02:55:03;;;;;;;;;0.75;0.75;;;;;;;;4987190;28;9731;-82
2022/10/25 02:57:33;;;;;;;;;0.00;0.00;;;;;;;;5004403;28;8893;-83
2022/10/25 03:00:00;;;;;;;;;2.00;0.50;;;;;;;;5005476;28;8933;-82
2022/10/25 03:02:28;;;;;;;;;0.00;0.00;;;;;;;;4988195;28;8893;-82
2022/10/25 03:04:55;;;;;;;;;2.00;0.00;;;;;;;;5003765;28;8855;-83
2022/10/25 03:07:23;;;;;;;;;0.00;0.00;;;;;;;;4988003;28;8851;-83
2022/10/25 03:09:51;;;;;;;;;2.00;0.00;;;;;;;;5004477;28;8909;-82
2022/10/25 03:12:19;;;;;;;;;1.00;1.00;;;;;;;;4987706;28;8987;-83
2022/10/25 03:14:47;;;;;;;;;2.25;1.25;;;;;;;;5004934;28;8867;-82
2022/10/25 03:17:14;;;;;;;;;0.00;0.00;;;;;;;;5006689;28;8839;-82
2022/10/25 03:19:42;;;;;;;;;1.00;1.00;;;;;;;;4987491;28;8871;-83
2022/10/25 03:22:09;;;;;;;;;2.00;0.25;;;;;;;;4990882;28;8836;-83
2022/10/25 03:24:37;;;;;;;;;0.00;0.00;;;;;;;;5009210;28;8965;-83
2022/10/25 03:27:05;;;;;;;;;0.75;0.75;;;;;;;;4990478;28;8926;-83
2022/10/25 03:29:33;;;;;;;;;3.25;1.00;;;;;;;;5005793;28;9065;-82
2022/10/25 03:32:01;;;;;;;;;0.00;0.00;;;;;;;;4990472;28;8851;-82
2022/10/25 03:34:28;;;;;;;;;1.00;1.00;;;;;;;;5006802;28;8861;-82
2022/10/25 03:36:56;;;;;;;;;0.50;0.50;;;;;;;;5007563;28;8961;-81
2022/10/25 03:39:24;;;;;;;;;0.00;0.00;;;;;;;;5008403;28;8875;-82
2022/10/25 03:41:51;;;;;;;;;1.00;1.00;;;;;;;;5008282;28;9214;-82
2022/10/25 03:44:21;;;;;;;;;1.00;1.00;;;;;;;;5008520;28;8849;-81
2022/10/25 03:46:48;;;;;;;;;1.00;1.00;;;;;;;;5009116;28;8856;-82
2022/10/25 03:49:15;;;;;;;;;1.50;0.00;;;;;;;;5006551;28;8859;-81
2022/10/25 03:51:43;;;;;;;;;0.50;0.50;;;;;;;;5006625;28;8863;-82
2022/10/25 03:54:11;;;;;;;;;0.00;0.00;;;;;;;;5007095;28;8886;-81
2022/10/25 03:56:38;;;;;;;;;0.25;0.25;;;;;;;;5004518;28;8881;-82
2022/10/25 03:59:06;;;;;;;;;0.00;0.00;;;;;;;;4987653;28;8842;-82
2022/10/25 04:01:35;;;;;;;;;2.50;0.50;;;;;;;;5007474;28;8851;-82
2022/10/25 04:04:03;;;;;;;;;0.00;0.00;;;;;;;;4990895;28;8835;-82
2022/10/25 04:06:30;;;;;;;;;0.25;0.25;;;;;;;;5008348;28;8843;-82
2022/10/25 04:08:58;;;;;;;;;0.00;0.00;;;;;;;;5006738;28;8843;-82
2022/10/25 04:11:26;;;;;;;;;0.00;0.00;;;;;;;;5005935;28;8872;-82
2022/10/25 04:13:53;;;;;;;;;0.00;0.00;;;;;;;;5006448;28;8854;-81
2022/10/25 04:16:22;;;;;;;;;1.50;1.00;;;;;;;;4974345;28;8859;-82
2022/10/25 04:18:53;;;;;;;;;0.00;0.00;;;;;;;;4991088;28;8852;-82
2022/10/25 04:21:20;;;;;;;;;0.75;0.75;;;;;;;;4990280;28;8887;-82
2022/10/25 04:23:47;;;;;;;;;0.75;0.75;;;;;;;;5008596;28;8957;-81
2022/10/25 04:26:17;;;;;;;;;3.00;1.00;;;;;;;;5007336;28;8858;-82
2022/10/25 04:28:44;;;;;;;;;1.00;0.75;;;;;;;;4990899;28;9022;-83
2022/10/25 04:31:12;;;;;;;;;1.00;1.00;;;;;;;;5005468;28;8901;-82
2022/10/25 04:33:39;;;;;;;;;1.00;1.00;;;;;;;;5006832;28;8967;-83
2022/10/25 04:36:09;;;;;;;;;0.00;0.00;;;;;;;;5007917;28;8858;-82
2022/10/25 04:38:36;;;;;;;;;1.00;1.00;;;;;;;;5004705;28;8874;-82
2022/10/25 04:41:04;;;;;;;;;1.00;1.00;;;;;;;;5007486;28;8864;-83
2022/10/25 04:43:31;;;;;;;;;1.25;1.25;;;;;;;;5004460;28;8864;-83
2022/10/25 04:46:00;;;;;;;;;2.00;0.00;;;;;;;;5006305;28;8974;-83
2022/10/25 04:48:28;;;;;;;;;0.50;0.50;;;;;;;;4988538;28;8848;-84
2022/10/25 04:50:59;;;;;;;;;2.00;1.00;;;;;;;;5005156;28;8871;-83
2022/10/25 04:53:28;;;;;;;;;1.00;1.00;;;;;;;;5007694;28;8902;-84
2022/10/25 04:55:59;;;;;;;;;2.50;1.00;;;;;;;;5006565;28;8847;-83
2022/10/25 04:58:26;;;;;;;;;2.00;1.00;;;;;;;;4986966;28;8910;-83
2022/10/25 05:00:54;;;;;;;;;1.00;1.00;;;;;;;;5007325;28;8941;-83
2022/10/25 05:03:23;;;;;;;;;2.00;1.00;;;;;;;;5007702;28;8842;-83
2022/10/25 05:05:55;;;;;;;;;1.00;1.00;;;;;;;;4991264;28;8855;-83
2022/10/25 05:08:23;;;;;;;;;2.00;2.00;;;;;;;;5007823;28;9031;-83
2022/10/25 05:10:55;;;;;;;;;2.00;2.00;;;;;;;;4995528;28;8863;-83
2022/10/25 05:13:24;;;;;;;;;3.25;1.25;;;;;;;;5005537;28;8871;-84
2022/10/25 05:15:55;;;;;;;;;1.25;1.00;;;;;;;;5007245;28;8880;-83
2022/10/25 05:18:22;;;;;;;;;1.50;1.00;;;;;;;;5005365;28;8856;-83
2022/10/25 05:20:53;;;;;;;;;1.75;1.75;;;;;;;;5005165;28;8833;-82
2022/10/25 05:23:20;;;;;;;;;1.75;1.75;;;;;;;;5006389;28;8839;-82
2022/10/25 05:25:48;;;;;;;;;1.00;1.00;;;;;;;;5005386;28;8893;-83
2022/10/25 05:28:17;;;;;;;;;4.25;2.00;;;;;;;;4987654;28;8879;-83
2022/10/25 05:30:44;;;;;;;;;1.75;1.75;;;;;;;;5004350;28;8872;-82
2022/10/25 05:33:12;;;;;;;;;3.00;1.50;;;;;;;;5005101;28;8975;-83
2022/10/25 05:35:40;;;;;;;;;2.00;2.00;;;;;;;;5004866;28;8858;-82
2022/10/25 05:38:07;;;;;;;;;1.00;1.00;;;;;;;;4999518;28;8883;-82
2022/10/25 05:40:34;;;;;;;;;2.75;1.75;;;;;;;;5003941;28;8862;-81
2022/10/25 05:43:02;;;;;;;;;3.00;1.50;;;;;;;;5002951;28;8852;-83
2022/10/25 05:45:31;;;;;;;;;3.00;2.00;;;;;;;;4988427;28;8847;-83
2022/10/25 05:47:59;;;;;;;;;2.25;2.25;;;;;;;;4987801;28;8946;-83
2022/10/25 05:50:27;;;;;;;;;2.75;2.00;;;;;;;;5006604;28;8872;-84
2022/10/25 05:52:54;;;;;;;;;2.50;2.50;;;;;;;;5007132;28;8859;-84
2022/10/25 05:55:22;;;;;;;;;2.50;2.50;;;;;;;;5005220;28;8839;-85
2022/10/25 05:57:51;;;;;;;;;1.00;1.00;;;;;;;;5007747;28;8867;-83
2022/10/25 06:00:23;;;;;;;;;2.00;2.00;;;;;;;;5005117;28;8843;-81
2022/10/25 06:02:55;;;;;;;;;0.75;0.75;;;;;;;;5005179;28;8847;-82
2022/10/25 06:05:24;;;;;;;;;1.25;1.25;;;;;;;;5003561;28;8970;-81
2022/10/25 06:07:55;;;;;;;;;2.00;2.00;;;;;;;;4971390;28;8843;-76
2022/10/25 06:10:23;;;;;;;;;1.00;1.00;;;;;;;;5011284;28;8874;-75
2022/10/25 06:12:51;;;;;;;;;3.00;1.75;;;;;;;;5001727;28;8871;-75
2022/10/25 06:15:20;;;;;;;;;2.00;1.25;;;;;;;;4986573;28;8900;-75
2022/10/25 06:17:50;;;;;;;;;1.00;1.00;;;;;;;;5001551;28;8974;-75
2022/10/25 06:20:19;;;;;;;;;2.00;2.00;;;;;;;;5002996;28;8855;-76
2022/10/25 06:22:48;;;;;;;;;1.00;1.00;;;;;;;;5002216;28;8868;-73
2022/10/25 06:25:16;;;;;;;;;2.00;2.00;;;;;;;;5005153;28;8871;-76
2022/10/25 06:27:45;;;;;;;;;2.00;1.00;;;;;;;;5004264;28;8872;-76
2022/10/25 06:30:17;;;;;;;;;1.50;1.00;;;;;;;;5001871;28;8861;-74
2022/10/25 06:32:44;;;;;;;;;1.75;1.75;;;;;;;;5001957;28;8894;-71
2022/10/25 06:35:30;;;;;;;;;2.00;2.00;;;;;;;;4984095;28;8871;-75
2022/10/25 06:38:01;;;;;;;;;3.00;3.00;;;;;;;;4998118;28;8862;-74
2022/10/25 06:40:28;;;;;;;;;4.75;2.75;;;;;;;;5001921;28;8859;-74
2022/10/25 06:42:57;;;;;;;;;2.00;2.00;;;;;;;;5003796;28;8979;-74
2022/10/25 06:45:27;;;;;;;;;2.00;2.00;;;;;;;;5003347;28;9001;-74
2022/10/25 06:47:58;;;;;;;;;4.00;4.00;;;;;;;;5003671;28;8862;-75
2022/10/25 06:50:25;;;;;;;;;3.50;3.50;;;;;;;;5001942;28;8856;-74
2022/10/25 06:52:52;;;;;;;;;2.50;2.50;;;;;;;;4992175;28;8843;-74
2022/10/25 06:55:21;;;;;;;;;3.00;3.00;;;;;;;;4991415;28;9652;-74
2022/10/25 06:57:58;;;;;;;;;5.00;2.75;;;;;;;;4964849;28;8854;-73
2022/10/25 07:00:33;;;;;;;;;1.00;1.00;;;;;;;;4989029;28;8848;-76
2022/10/25 07:03:01;;;;;;;;;3.25;2.00;;;;;;;;4983253;28;8847;-75
2022/10/25 07:05:32;;;;;;;;;3.25;1.25;;;;;;;;4969097;28;8842;-73
2022/10/25 07:07:59;;;;;;;;;2.75;2.50;;;;;;;;4985816;28;8862;-74
2022/10/25 07:10:29;;;;;;;;;3.50;3.25;;;;;;;;4983240;28;8839;-74
2022/10/25 07:12:57;;;;;;;;;6.75;4.00;;;;;;;;4986242;28;8975;-74
2022/10/25 07:15:25;;;;;;;;;4.00;3.00;;;;;;;;4983208;28;8847;-75
2022/10/25 07:17:55;;;;;;;;;3.50;3.50;;;;;;;;4978105;28;10353;-76
2022/10/25 07:20:24;;;;;;;;;5.75;5.75;;;;;;;;4978194;28;8851;-75
2022/10/25 07:22:52;;;;;;;;;6.25;5.00;;;;;;;;4987575;28;8842;-76
2022/10/25 07:25:22;;;;;;;;;5.50;4.50;;;;;;;;4963947;28;9597;-76
2022/10/25 07:27:51;;;;;;;;;7.00;5.75;;;;;;;;4989708;28;8851;-77
2022/10/25 07:30:19;;;;;;;;;5.00;5.00;;;;;;;;4982929;28;8862;-76
2022/10/25 07:32:46;;;;;;;;;4.00;4.00;;;;;;;;4989672;28;8917;-75
2022/10/25 07:35:13;;;;;;;;;6.00;5.00;;;;;;;;4983156;28;8870;-77
2022/10/25 07:37:41;;;;;;;;;5.75;5.75;;;;;;;;4962052;28;8824;-77
2022/10/25 07:40:13;;;;;;;;;4.75;4.00;;;;;;;;4989884;28;8869;-78
2022/10/25 07:42:41;;;;;;;;;6.50;6.50;;;;;;;;4981818;28;8854;-77
2022/10/25 07:45:11;;;;;;;;;6.75;6.75;;;;;;;;4983680;28;8829;-78
2022/10/25 07:47:39;;;;;;;;;7.75;6.00;;;;;;;;4985745;28;8985;-78
2022/10/25 07:50:08;;;;;;;;;7.50;6.50;;;;;;;;4968357;28;8912;-77
2022/10/25 07:52:35;;;;;;;;;6.25;4.00;;;;;;;;4988415;28;8867;-75
2022/10/25 07:55:03;;;;;;;;;7.25;6.75;;;;;;;;5003847;28;8855;-76
2022/10/25 07:57:30;;;;;;;;;6.75;5.00;;;;;;;;4999338;28;8851;-74
2022/10/25 07:59:59;;;;;;;;;10.50;7.25;;;;;;;;4979487;28;8883;-74
2022/10/25 08:02:28;;;;;;;;;8.50;5.00;;;;;;;;4997974;28;9659;-74
2022/10/25 08:04:56;;;;;;;;;5.50;4.00;;;;;;;;4999586;28;8893;-76
2022/10/25 08:07:24;;;;;;;;;5.00;5.00;;;;;;;;5002283;28;8851;-72
2022/10/25 08:09:53;;;;;;;;;4.75;4.75;;;;;;;;5003688;28;8843;-75
2022/10/25 08:12:20;;;;;;;;;5.00;3.50;;;;;;;;5000664;28;9732;-73
2022/10/25 08:14:48;;;;;;;;;7.00;4.25;;;;;;;;5005568;28;8847;-74
2022/10/25 08:17:16;;;;;;;;;4.00;4.00;;;;;;;;5001554;28;8871;-74
2022/10/25 08:19:48;;;;;;;;;6.25;5.00;;;;;;;;5005716;28;8847;-74
2022/10/25 08:22:16;;;;;;;;;4.00;4.00;;;;;;;;5004267;28;8886;-74
2022/10/25 08:24:43;;;;;;;;;4.00;4.00;;;;;;;;5005308;28;8998;-74
2022/10/25 08:27:11;;;;;;;;;6.25;4.00;;;;;;;;5006503;28;8909;-74
2022/10/25 08:29:38;;;;;;;;;9.25;4.25;;;;;;;;5005229;28;9681;-73
2022/10/25 08:32:06;;;;;;;;;5.00;3.00;;;;;;;;5004581;28;8859;-74
2022/10/25 08:34:34;;;;;;;;;3.75;3.75;;;;;;;;5004693;28;8851;-74
2022/10/25 08:37:03;;;;;;;;;3.00;3.00;;;;;;;;5004100;28;9577;-73
2022/10/25 08:39:30;;;;;;;;;2.25;2.25;;;;;;;;5005406;28;8965;-74
2022/10/25 08:41:59;;;;;;;;;3.75;3.75;;;;;;;;5007226;28;8847;-74
2022/10/25 08:44:40;;;;;;;;;3.50;2.00;;;;;;;;5004986;28;8864;-74
2022/10/25 08:47:12;;;;;;;;;2.50;2.00;;;;;;;;4967908;28;9286;-73
2022/10/25 08:49:47;;;;;;;;;2.25;2.00;;;;;;;;5003837;28;8874;-73
2022/10/25 08:52:20;;;;;;;;;2.25;2.25;;;;;;;;5004925;28;8887;-73
2022/10/25 08:54:49;;;;;;;;;4.50;3.00;;;;;;;;5005645;28;8847;-74
2022/10/25 08:57:22;;;;;;;;;4.00;2.00;;;;;;;;4986032;28;8965;-73
2022/10/25 08:59:52;;;;;;;;;3.50;2.00;;;;;;;;4986742;28;8844;-75
2022/10/25 09:02:24;;;;;;;;;5.00;2.50;;;;;;;;5004464;28;8871;-76
2022/10/25 09:04:52;;;;;;;;;2.00;1.00;;;;;;;;5003074;28;8858;-72
2022/10/25 09:07:50;;;;;;;;;2.25;2.00;;;;;;;;5005250;28;8957;-76
2022/10/25 09:10:28;;;;;;;;;2.00;1.00;;;;;;;;5000126;28;8862;-75
2022/10/25 09:13:01;;;;;;;;;2.00;2.00;;;;;;;;4988864;28;8855;-74
2022/10/25 09:15:47;;;;;;;;;2.00;2.00;;;;;;;;4970991;28;8851;-73
2022/10/25 09:18:18;;;;;;;;;4.00;3.00;;;;;;;;4982481;28;8915;-73
2022/10/25 09:20:49;;;;;;;;;2.00;1.00;;;;;;;;4986628;28;8847;-74
2022/10/25 09:23:27;;;;;;;;;4.00;2.25;;;;;;;;5003511;28;8863;-75
2022/10/25 09:26:02;;;;;;;;;5.25;3.25;;;;;;;;5002587;28;8958;-75
2022/10/25 09:28:40;;;;;;;;;2.50;1.75;;;;;;;;4984856;28;8835;-75
2022/10/25 09:31:08;;;;;;;;;1.00;1.00;;;;;;;;5002480;28;8843;-75
2022/10/25 09:33:36;;;;;;;;;3.00;2.00;;;;;;;;5004297;28;8839;-74
2022/10/25 09:36:04;;;;;;;;;2.00;2.00;;;;;;;;5001735;28;8973;-74
2022/10/25 09:38:40;;;;;;;;;3.00;1.00;;;;;;;;5002833;28;8874;-73
2022/10/25 09:41:14;;;;;;;;;1.40;1.40;;;;;;;;4983491;28;8875;-73
2022/10/25 09:43:47;;;;;;;;;1.80;1.80;;;;;;;;5003808;28;8862;-73
2022/10/25 09:46:18;;;;;;;;;2.20;2.20;;;;;;;;5003688;28;8855;-74
2022/10/25 09:48:53;;;;;;;;;2.00;2.00;;;;;;;;4986018;28;8913;-73
2022/10/25 09:51:29;;;;;;;;;2.80;1.80;;;;;;;;5002308;28;9789;-74
2022/10/25 09:53:58;;;;;;;;;2.20;2.20;;;;;;;;4982849;28;8851;-74
2022/10/25 09:56:26;;;;;;;;;1.40;0.60;;;;;;;;4967077;28;8892;-74
2022/10/25 09:58:53;;;;;;;;;3.80;2.20;;;;;;;;4983942;28;9645;-73
2022/10/25 10:01:26;;;;;;;;;2.00;0.00;;;;;;;;4984071;28;8871;-74
2022/10/25 10:03:53;;;;;;;;;2.75;2.75;;;;;;;;4981876;28;8857;-73
2022/10/25 10:06:26;;;;;;;;;1.75;1.75;;;;;;;;4982984;28;8846;-74
2022/10/25 10:08:55;;;;;;;;;2.00;2.00;;;;;;;;4966592;28;8858;-74
2022/10/25 10:11:26;;;;;;;;;2.00;2.00;;;;;;;;4983300;28;8842;-74
2022/10/25 10:13:55;;;;;;;;;4.00;2.00;;;;;;;;4966794;28;8864;-74
2022/10/25 10:16:29;;;;;;;;;1.50;1.50;;;;;;;;4984634;28;8815;-74
2022/10/25 10:19:17;;;;;;;;;1.00;1.00;;;;;;;;4982441;28;8854;-74
2022/10/25 10:21:46;;;;;;;;;2.20;1.00;;;;;;;;4983016;28;8843;-74
2022/10/25 10:24:19;;;;;;;;;1.00;1.00;;;;;;;;4965899;28;9655;-74
2022/10/25 10:26:54;;;;;;;;;1.00;1.00;;;;;;;;4980908;28;8850;-74
2022/10/25 10:29:23;;;;;;;;;2.80;1.60;;;;;;;;4981412;28;9668;-74
2022/10/25 10:31:54;;;;;;;;;1.20;1.00;;;;;;;;4982908;28;8854;-74
2022/10/25 10:34:25;;;;;;;;;2.60;2.00;;;;;;;;4965886;28;8932;-74
2022/10/25 10:37:14;;;;;;;;;1.00;1.00;;;;;;;;4964272;28;8879;-74
2022/10/25 10:39:53;;;;;;;;;0.40;0.40;;;;;;;;4978377;28;8953;-74
2022/10/25 10:42:23;;;;;;;;;1.00;1.00;;;;;;;;4964810;28;8844;-74
2022/10/25 10:45:03;;;;;;;;;1.20;1.20;;;;;;;;4982917;28;8850;-74
2022/10/25 10:47:34;;;;;;;;;1.40;1.00;;;;;;;;4981908;28;8847;-74
2022/10/25 10:50:12;;;;;;;;;0.40;0.40;;;;;;;;4983278;28;9598;-74
2022/10/25 10:52:42;;;;;;;;;2.20;1.00;;;;;;;;4992171;28;8867;-74
2022/10/25 10:55:20;;;;;;;;;0.00;0.00;;;;;;;;5001714;28;8999;-74
2022/10/25 10:57:49;;;;;;;;;2.00;2.00;;;;;;;;5001209;28;9274;-73
2022/10/25 11:00:22;;;;;;;;;0.40;0.40;;;;;;;;5003451;28;8851;-74
2022/10/25 11:02:53;;;;;;;;;2.00;0.80;;;;;;;;4999889;28;8873;-74
2022/10/25 11:05:26;;;;;;;;;1.00;1.00;;;;;;;;5001711;28;8848;-74
2022/10/25 11:07:55;;;;;;;;;0.20;0.20;;;;;;;;5001880;28;11122;-74
2022/10/25 11:10:28;;;;;;;;;0.40;0.40;;;;;;;;5002252;28;8906;-74
2022/10/25 11:13:12;;;;;;;;;1.00;1.00;;;;;;;;4984396;28;8875;-74
2022/10/25 11:16:14;;;;;;;;;0.60;0.60;;;;;;;;5002197;28;8867;-74
2022/10/25 11:19:00;;;;;;;;;1.00;1.00;;;;;;;;4981361;28;8843;-74
2022/10/25 11:21:39;;;;;;;;;0.60;0.60;;;;;;;;4998094;28;8821;-74
2022/10/25 11:24:13;;;;;;;;;0.00;0.00;;;;;;;;4995628;28;8870;-74
2022/10/25 11:26:52;;;;;;;;;0.00;0.00;;;;;;;;4997488;28;8864;-75
2022/10/25 11:29:35;;;;;;;;;1.60;0.00;;;;;;;;5002490;28;8892;-74
2022/10/25 11:32:07;;;;;;;;;1.00;1.00;;;;;;;;5000598;28;8851;-74
2022/10/25 11:34:43;;;;;;;;;2.40;1.00;;;;;;;;5003162;28;8865;-74
2022/10/25 11:37:19;;;;;;;;;1.00;1.00;;;;;;;;4984075;28;8864;-74
2022/10/25 11:39:51;;;;;;;;;0.00;0.00;;;;;;;;5000238;28;9009;-74
2022/10/25 11:42:39;;;;;;;;;0.00;0.00;;;;;;;;5006509;28;8830;-74
2022/10/25 11:45:22;;;;;;;;;2.20;1.00;;;;;;;;5005605;28;9016;-76
2022/10/25 11:48:01;;;;;;;;;1.00;1.00;;;;;;;;5005883;28;9593;-73
2022/10/25 11:50:38;;;;;;;;;1.00;1.00;;;;;;;;4984959;28;8871;-72
2022/10/25 11:53:23;;;;;;;;;1.00;1.00;;;;;;;;4996360;28;8860;-74
2022/10/25 11:56:09;;;;;;;;;0.00;0.00;;;;;;;;5005475;28;8865;-73
2022/10/25 11:58:57;;;;;;;;;1.00;1.00;;;;;;;;5001923;28;8928;-72
2022/10/25 12:01:43;;;;;;;;;3.00;1.60;;;;;;;;5003796;28;8892;-72
2022/10/25 12:04:38;;;;;;;;;1.80;1.00;;;;;;;;5019181;28;8969;-73
2022/10/25 12:07:12;;;;;;;;;3.80;1.00;;;;;;;;5005324;28;8857;-73
2022/10/25 12:09:52;;;;;;;;;1.00;1.00;;;;;;;;5001948;28;8844;-74
2022/10/25 12:12:36;;;;;;;;;2.20;1.20;;;;;;;;5002304;28;8849;-74
2022/10/25 12:15:04;;;;;;;;;1.40;1.00;;;;;;;;5004683;28;8859;-74
2022/10/25 12:17:35;;;;;;;;;1.00;1.00;;;;;;;;5003112;28;8863;-74
2022/10/25 12:20:05;;;;;;;;;2.00;2.00;;;;;;;;5004465;28;8844;-75
2022/10/25 12:22:37;;;;;;;;;2.40;2.00;;;;;;;;5004900;28;8828;-75
2022/10/25 12:25:08;;;;;;;;;1.00;1.00;;;;;;;;5004842;28;8926;-74
2022/10/25 12:27:37;;;;;;;;;0.80;0.80;;;;;;;;5004100;28;8898;-74
2022/10/25 12:30:06;;;;;;;;;1.80;1.80;;;;;;;;5002247;28;8866;-72
2022/10/25 12:32:39;;;;;;;;;0.80;0.80;;;;;;;;5003271;28;8824;-74
2022/10/25 12:35:14;;;;;;;;;2.40;2.00;;;;;;;;5005155;28;8864;-74
2022/10/25 12:37:46;;;;;;;;;3.00;1.00;;;;;;;;5004078;28;8883;-74
2022/10/25 12:40:21;;;;;;;;;3.00;1.00;;;;;;;;5006766;28;9458;-73
2022/10/25 12:42:55;;;;;;;;;1.00;1.00;;;;;;;;5004225;28;8832;-73
2022/10/25 12:45:56;;;;;;;;;0.00;0.00;;;;;;;;5008367;28;9018;-77
2022/10/25 12:49:20;;;;;;;;;1.00;1.00;;;;;;;;5008026;28;8845;-75
2022/10/25 12:52:04;;;;;;;;;2.40;1.00;;;;;;;;4920260;28;8929;-77
2022/10/25 12:54:54;;;;;;;;;1.00;1.00;;;;;;;;5007703;28;8885;-74
2022/10/25 12:57:27;;;;;;;;;1.00;1.00;;;;;;;;4993204;28;8868;-76
2022/10/25 13:00:08;;;;;;;;;3.60;2.00;;;;;;;;5010181;28;8884;-78
2022/10/25 13:03:24;;;;;;;;;1.00;1.00;;;;;;;;4989652;28;8905;-76
2022/10/25 13:06:24;;;;;;;;;0.00;0.00;;;;;;;;5018037;28;9807;-76
2022/10/25 13:08:55;;;;;;;;;1.00;1.00;;;;;;;;5017096;28;8857;-76
2022/10/25 13:11:35;;;;;;;;;0.00;0.00;;;;;;;;4998243;28;8831;-76
2022/10/25 13:14:05;;;;;;;;;0.80;0.80;;;;;;;;5009658;28;8843;-76
2022/10/25 13:16:34;;;;;;;;;1.00;1.00;;;;;;;;5007193;28;9835;-75
2022/10/25 13:19:29;;;;;;;;;1.00;1.00;;;;;;;;4992610;28;8968;-75
2022/10/25 13:22:12;;;;;;;;;0.20;0.00;;;;;;;;4962512;28;8886;-75
2022/10/25 13:24:55;;;;;;;;;0.60;0.60;;;;;;;;5019021;28;8839;-75
2022/10/25 13:27:23;;;;;;;;;0.60;0.60;;;;;;;;5016222;28;8855;-76
2022/10/25 13:30:26;;;;;;;;;1.20;1.00;;;;;;;;4986577;28;8860;-75
2022/10/25 13:33:32;;;;;;;;;2.00;0.40;;;;;;;;4992969;28;8853;-76
2022/10/25 13:36:04;;;;;;;;;1.20;1.00;;;;;;;;5006052;28;8962;-75
2022/10/25 13:38:35;;;;;;;;;0.00;0.00;;;;;;;;4999828;28;8879;-76
2022/10/25 13:41:12;;;;;;;;;0.00;0.00;;;;;;;;5002672;28;8842;-75
2022/10/25 13:43:58;;;;;;;;;2.60;1.00;;;;;;;;4985393;28;8848;-76
2022/10/25 13:46:30;;;;;;;;;0.80;0.80;;;;;;;;4995919;28;8875;-75
2022/10/25 13:48:57;;;;;;;;;1.00;1.00;;;;;;;;5004114;28;8967;-77
2022/10/25 13:51:25;;;;;;;;;0.60;0.60;;;;;;;;4984393;28;8856;-75
2022/10/25 13:53:54;;;;;;;;;1.00;1.00;;;;;;;;5000289;28;8871;-75
2022/10/25 13:56:37;;;;;;;;;2.00;1.00;;;;;;;;5005424;28;9654;-75
2022/10/25 13:59:04;;;;;;;;;1.00;1.00;;;;;;;;4985567;28;8845;-75
2022/10/25 14:01:56;;;;;;;;;2.60;1.80;;;;;;;;5003275;28;8876;-75
2022/10/25 14:07:49;;;;;;;;;3.20;0.80;;;;;;;;5002585;28;9031;-75
2022/10/25 14:10:26;;;;;;;;;0.00;0.00;;;;;;;;5002833;28;8859;-76
2022/10/25 14:13:14;;;;;;;;;1.80;1.00;;;;;;;;5003015;28;8845;-76
2022/10/25 14:15:51;;;;;;;;;1.00;1.00;;;;;;;;5004270;28;8884;-76
2022/10/25 14:18:21;;;;;;;;;1.00;1.00;;;;;;;;5003953;28;8848;-74
2022/10/25 14:20:52;;;;;;;;;1.80;0.80;;;;;;;;5005482;28;8866;-74
2022/10/25 14:23:28;;;;;;;;;0.00;0.00;;;;;;;;5005089;28;8967;-73
2022/10/25 14:25:58;;;;;;;;;0.60;0.60;;;;;;;;5001097;28;8962;-74
2022/10/25 14:28:29;;;;;;;;;0.80;0.00;;;;;;;;4999594;28;8849;-74
2022/10/25 14:30:57;;;;;;;;;2.00;0.60;;;;;;;;5000175;28;8844;-75
2022/10/25 14:33:27;;;;;;;;;1.00;1.00;;;;;;;;4985310;28;8972;-73
2022/10/25 14:35:57;;;;;;;;;1.00;1.00;;;;;;;;5001110;28;8946;-73
2022/10/25 14:38:26;;;;;;;;;0.80;0.80;;;;;;;;5002488;28;8864;-74
2022/10/25 14:40:56;;;;;;;;;1.00;1.00;;;;;;;;4983308;28;8829;-74
2022/10/25 14:43:35;;;;;;;;;2.40;1.00;;;;;;;;4983900;28;8882;-75
2022/10/25 14:46:13;;;;;;;;;1.00;1.00;;;;;;;;4999755;28;8853;-74
2022/10/25 14:48:44;;;;;;;;;0.80;0.80;;;;;;;;5002069;28;8836;-74
2022/10/25 14:51:20;;;;;;;;;4.00;2.00;;;;;;;;5001426;28;9726;-75
2022/10/25 14:53:56;;;;;;;;;3.00;1.20;;;;;;;;5001596;28;8864;-74
2022/10/25 14:56:27;;;;;;;;;0.60;0.00;;;;;;;;5016184;28;8943;-74
2022/10/25 14:58:57;;;;;;;;;1.00;1.00;;;;;;;;5000225;28;9002;-74
2022/10/25 15:01:25;;;;;;;;;2.60;0.00;;;;;;;;4999325;28;8876;-74
2022/10/25 15:03:56;;;;;;;;;3.00;1.00;;;;;;;;5017092;28;8840;-73
2022/10/25 15:06:26;;;;;;;;;1.00;1.00;;;;;;;;4991894;28;8849;-73
2022/10/25 15:08:56;;;;;;;;;1.00;1.00;;;;;;;;5002228;28;8857;-74
2022/10/25 15:11:24;;;;;;;;;1.00;1.00;;;;;;;;5002021;28;8844;-74
2022/10/25 15:13:53;;;;;;;;;1.00;1.00;;;;;;;;5015348;28;8876;-73
2022/10/25 15:16:35;;;;;;;;;1.00;1.00;;;;;;;;5005280;28;8852;-73
2022/10/25 15:19:15;;;;;;;;;2.00;1.00;;;;;;;;5005264;28;8895;-73
2022/10/25 15:21:44;;;;;;;;;4.00;2.00;;;;;;;;5018719;28;8908;-73
2022/10/25 15:24:18;;;;;;;;;1.00;1.00;;;;;;;;5006267;28;8868;-73
2022/10/25 15:26:53;;;;;;;;;1.00;1.00;;;;;;;;5002019;28;8953;-75
2022/10/25 15:29:47;;;;;;;;;1.40;0.40;;;;;;;;5004106;28;8841;-73
2022/10/25 15:32:17;;;;;;;;;1.60;1.60;;;;;;;;5005435;28;8969;-74
2022/10/25 15:34:47;;;;;;;;;3.00;2.00;;;;;;;;5004636;28;9119;-75